This is the latest recevied weather packets stored in our database for station/object N7ZAP. If no packets are shown the sender has not sent any weather packets the latest 1 day(s).
| Time | Temp. | Humidity | Pressure | Rain* | Wind** | Luminosity | Snow |
|---|---|---|---|---|---|---|---|
| 1778109756 | 21.67° C | 24% | 1014.1 hPa | 0 mm | - | - | - |
| 1778107939 | 22.78° C | 19% | 1013.7 hPa | 0 mm | - | - | - |
| 1778103390 | 22.78° C | 19% | 1013.4 hPa | 0 mm | - | - | - |
| 1778100355 | 24.44° C | 18% | 1013.9 hPa | 0 mm | - | - | - |
| 1778099144 | 22.78° C | 20% | 1014.1 hPa | 0 mm | - | - | - |
| 1778098840 | 22.78° C | 23% | 1014.1 hPa | 0 mm | - | - | - |
| 1778098538 | 22.78° C | 21% | 1014.4 hPa | 0 mm | - | - | - |
| 1778097930 | 22.22° C | 22% | 1014.6 hPa | 0 mm | - | - | - |
| 1778097627 | 22.22° C | 22% | 1014.1 hPa | 0 mm | - | - | - |
| 1778097324 | 22.78° C | 22% | 1014.6 hPa | 0 mm | - | - | - |
| 1778093079 | 20.56° C | 26% | 1015.3 hPa | 0 mm | - | - | - |
| 1778091564 | 20.56° C | 25% | 1015.4 hPa | 0 mm | - | - | - |
| 1778090654 | 20° C | 28% | 1015.5 hPa | 0 mm | - | - | - |
| 1778089745 | 20.56° C | 26% | 1015.8 hPa | 0 mm | - | - | - |
| 1778088836 | 19.44° C | 29% | 1015.9 hPa | 0 mm | - | - | - |
| 1778088230 | 18.89° C | 29% | 1015.9 hPa | 0 mm | - | - | - |
| 1778086111 | 17.22° C | 33% | 1016.2 hPa | 0 mm | - | - | - |
| 1778085808 | 17.22° C | 32% | 1016 hPa | 0 mm | - | - | - |
| 1778084594 | 17.22° C | 34% | 1016.1 hPa | 0 mm | - | - | - |
| 1778081044 | 15.56° C | 36% | 1016.5 hPa | 0 mm | - | - | - |
| 1778080439 | 13.89° C | 38% | 1016.3 hPa | 0 mm | - | - | - |
| 1778080137 | 13.89° C | 40% | 1016.6 hPa | 0 mm | - | - | - |
| 1778078015 | 12.78° C | 41% | 1016.8 hPa | 0 mm | - | - | - |
| 1778077411 | 12.22° C | 43% | 1016.7 hPa | 0 mm | - | - | - |
| 1778076505 | 11.67° C | 45% | 1017 hPa | 0 mm | - | - | - |
* Rain latest hour (hover to see other rain measurements)
** Current wind speed in m/s (hover to see current wind gust speed)